Time;durP1;ratioP1;P1;durP2;ratioP2;P2;SDS_P1;SDS_P2;PMS_P1;PMS_P2;Temp;Humidity;BMP_temperature;BMP_pressure;BME280_temperature;BME280_humidity;BME280_pressure;Samples;Min_cycle;Max_cycle;Signal;HPM_P1;HPM_P2
2022/12/29 00:01:27;;;;;;;19.17;12.82;;;;;;;16.42;60.04;99590.13;5071728;28;20027;-83
2022/12/29 00:03:53;;;;;;;17.17;13.30;;;;;;;16.43;60.34;99589.22;5073255;28;20028;-82
2022/12/29 00:06:18;;;;;;;19.35;13.75;;;;;;;16.45;59.88;99590.88;5073003;28;20040;-82
2022/12/29 00:08:44;;;;;;;18.48;12.73;;;;;;;16.46;59.95;99583.84;5072667;28;20431;-80
2022/12/29 00:11:12;;;;;;;20.38;14.00;;;;;;;16.47;59.98;99582.91;5072796;28;20035;-80
2022/12/29 00:16:23;;;;;;;19.40;13.18;;;;;;;16.45;60.02;99563.66;5072658;28;20031;-80
2022/12/29 00:18:49;;;;;;;19.40;13.10;;;;;;;16.43;60.12;99566.38;5072993;28;20021;-84
2022/12/29 00:35:38;;;;;;;17.23;12.98;;;;;;;16.38;60.15;99544.63;5015449;28;20557;-83
2022/12/29 00:46:18;;;;;;;18.75;12.60;;;;;;;16.31;59.98;99540.50;5015101;28;20399;-83
2022/12/29 00:51:28;;;;;;;15.93;11.65;;;;;;;16.32;59.89;99543.09;5014882;28;20053;-82
2022/12/29 00:53:54;;;;;;;17.52;12.32;;;;;;;16.31;60.16;99551.91;5014783;28;20029;-84
2022/12/29 00:56:19;;;;;;;17.05;12.23;;;;;;;16.32;60.31;99551.00;5014560;28;20026;-83
2022/12/29 00:58:44;;;;;;;17.05;12.15;;;;;;;16.31;60.14;99538.75;5014373;28;20667;-84
2022/12/29 01:01:10;;;;;;;17.23;12.02;;;;;;;16.30;60.01;99538.81;5014620;28;20420;-84
2022/12/29 01:03:37;;;;;;;16.10;11.95;;;;;;;16.31;59.96;99541.38;5043426;28;20048;-82
2022/12/29 01:06:04;;;;;;;16.58;11.70;;;;;;;16.31;60.20;99533.47;5075830;28;20049;-84
2022/12/29 01:08:30;;;;;;;17.00;12.77;;;;;;;16.34;60.15;99535.13;5076115;28;20469;-83
2022/12/29 01:11:11;;;;;;;17.23;12.10;;;;;;;16.33;60.04;99520.25;5074879;28;20031;-81
2022/12/29 01:13:38;;;;;;;16.60;12.38;;;;;;;16.33;59.98;99531.63;5058458;28;20034;-83
2022/12/29 01:16:07;;;;;;;17.63;11.93;;;;;;;16.33;59.92;99529.00;5076040;28;20021;-84
2022/12/29 01:18:33;;;;;;;17.85;11.85;;;;;;;16.37;59.91;99529.75;5070823;28;20047;-85
2022/12/29 01:21:05;;;;;;;15.93;11.57;;;;;;;16.38;60.04;99532.31;5075660;28;20029;-82
2022/12/29 01:23:31;;;;;;;15.93;11.95;;;;;;;16.40;59.85;99534.00;5075881;28;20500;-83
2022/12/29 01:25:56;;;;;;;16.60;11.45;;;;;;;16.34;60.00;99537.78;5075827;28;20107;-84
2022/12/29 01:28:22;;;;;;;15.30;10.70;;;;;;;16.36;60.25;99535.91;5075674;28;20036;-84
2022/12/29 01:30:47;;;;;;;13.75;10.13;;;;;;;16.31;60.10;99536.13;5075653;28;20064;-80
2022/12/29 01:33:13;;;;;;;16.17;10.73;;;;;;;16.35;60.16;99537.72;5074700;28;20024;-83
2022/12/29 01:35:39;;;;;;;14.43;10.63;;;;;;;16.31;59.93;99528.22;5075560;28;20024;-83
2022/12/29 01:38:04;;;;;;;13.98;11.38;;;;;;;16.31;59.85;99530.84;5075564;28;20039;-84
2022/12/29 01:40:30;;;;;;;14.15;10.35;;;;;;;16.32;60.24;99537.81;5074488;28;20021;-82
2022/12/29 01:42:55;;;;;;;13.65;10.05;;;;;;;16.33;60.00;99534.25;5075799;28;20094;-82
2022/12/29 01:45:21;;;;;;;12.80;9.32;;;;;;;16.32;59.90;99529.91;5075753;28;20478;-83
2022/12/29 01:47:55;;;;;;;14.02;10.18;;;;;;;16.34;59.88;99535.13;5075087;28;20029;-82
2022/12/29 01:50:28;;;;;;;13.68;10.25;;;;;;;16.36;59.78;99533.28;5075068;28;20028;-82
2022/12/29 01:53:08;;;;;;;12.90;9.80;;;;;;;16.37;59.91;99538.50;5074470;28;20028;-83
2022/12/29 01:55:44;;;;;;;14.70;9.68;;;;;;;16.36;59.72;99534.16;5074186;28;20025;-84
2022/12/29 01:58:13;;;;;;;14.57;10.30;;;;;;;16.36;60.00;99544.69;5074422;28;20043;-83
2022/12/29 02:00:38;;;;;;;13.55;9.35;;;;;;;16.34;59.76;99536.00;5074307;28;20120;-83
2022/12/29 02:03:06;;;;;;;13.52;10.35;;;;;;;16.30;59.99;99538.81;5075060;28;20042;-84
2022/12/29 02:05:38;;;;;;;13.15;9.07;;;;;;;16.31;60.06;99541.38;5073904;28;20052;-82
2022/12/29 02:08:04;;;;;;;12.07;9.90;;;;;;;16.29;60.06;99545.84;5074804;28;20052;-82
2022/12/29 02:10:32;;;;;;;13.85;9.23;;;;;;;16.26;60.14;99534.59;5074906;28;20154;-83
2022/12/29 02:12:58;;;;;;;14.30;9.90;;;;;;;16.30;60.03;99537.03;5075040;28;20036;-83
2022/12/29 02:15:45;;;;;;;14.18;10.13;;;;;;;16.31;60.14;99530.84;5074980;28;20059;-84
2022/12/29 02:18:16;;;;;;;13.30;9.77;;;;;;;16.33;59.77;99529.00;5073362;28;20028;-82
2022/12/29 02:20:54;;;;;;;12.57;8.73;;;;;;;16.30;59.86;99538.81;5074942;28;20467;-82
2022/12/29 02:23:35;;;;;;;12.27;9.52;;;;;;;16.30;59.76;99539.66;5074914;28;20539;-83
2022/12/29 02:26:37;;;;;;;11.77;9.27;;;;;;;16.30;59.88;99534.41;5074772;28;20036;-82
2022/12/29 02:29:20;;;;;;;12.93;8.93;;;;;;;16.24;60.19;99529.38;5074767;28;20111;-83
2022/12/29 02:31:57;;;;;;;14.40;9.20;;;;;;;16.25;60.16;99528.47;5074269;28;20035;-83
2022/12/29 02:34:57;;;;;;;12.27;8.90;;;;;;;16.27;59.92;99523.97;5074239;28;20025;-83
2022/12/29 02:37:30;;;;;;;11.75;8.43;;;;;;;16.25;59.97;99523.19;5074273;28;20028;-81
2022/12/29 02:40:02;;;;;;;11.80;8.75;;;;;;;16.22;60.07;99525.94;5073238;28;20119;-83
2022/12/29 02:42:42;;;;;;;13.32;9.38;;;;;;;16.22;59.94;99525.94;5074414;28;20036;-83
2022/12/29 02:45:19;;;;;;;12.75;8.77;;;;;;;16.24;60.12;99539.91;5074121;28;20028;-80
2022/12/29 02:47:56;;;;;;;12.02;8.57;;;;;;;16.27;60.04;99529.25;5074050;28;20028;-83
2022/12/29 02:50:42;;;;;;;12.52;8.50;;;;;;;16.30;60.02;99528.25;5074150;28;20028;-83
2022/12/29 02:53:14;;;;;;;10.95;8.15;;;;;;;16.32;59.69;99527.28;5074438;28;20020;-82
2022/12/29 02:55:51;;;;;;;12.15;8.65;;;;;;;16.33;59.81;99523.72;5073872;28;20020;-81
2022/12/29 02:58:22;;;;;;;11.68;8.07;;;;;;;16.29;59.60;99511.63;5074093;28;20398;-85
2022/12/29 03:01:19;;;;;;;11.73;8.23;;;;;;;16.32;59.74;99515.91;5073884;28;20116;-83
2022/12/29 03:04:02;;;;;;;10.98;8.07;;;;;;;16.29;59.75;99510.75;5052581;28;20548;-84
2022/12/29 03:07:08;;;;;;;11.90;8.57;;;;;;;16.25;60.01;99504.75;5052350;28;20041;-83
2022/12/29 03:09:36;;;;;;;10.80;7.70;;;;;;;16.25;59.75;99496.88;5052873;28;20051;-84
2022/12/29 03:16:05;;;;;;;13.30;8.18;;;;;;;16.21;59.75;99497.91;5011280;28;20073;-84
2022/12/29 03:18:50;;;;;;;10.52;7.22;;;;;;;16.21;60.15;99492.63;5012115;28;20125;-84
2022/12/29 03:24:25;;;;;;;;;;;;;;;16.24;60.07;99492.53;5012826;28;20123;-84
2022/12/29 03:26:54;;;;;;;9.85;7.18;;;;;;;16.25;60.01;99488.97;5012173;28;20000;-83
2022/12/29 03:29:20;;;;;;;10.98;8.23;;;;;;;16.22;59.72;99500.47;5012014;28;20057;-84
2022/12/29 03:31:49;;;;;;;10.07;7.50;;;;;;;16.20;59.86;99490.91;5011687;28;20077;-83
2022/12/29 03:34:17;;;;;;;9.65;7.22;;;;;;;16.18;59.94;99493.59;5011991;28;20034;-84
2022/12/29 03:36:49;;;;;;;11.38;8.32;;;;;;;16.19;60.07;99502.38;5011871;28;20066;-80
2022/12/29 03:39:14;;;;;;;10.38;7.00;;;;;;;16.18;59.83;99492.78;5011643;28;20038;-82
2022/12/29 03:41:42;;;;;;;10.20;7.50;;;;;;;16.16;59.95;99505.13;5011732;28;20034;-81
2022/12/29 03:44:08;;;;;;;11.35;8.35;;;;;;;16.17;59.90;99491.06;5011321;28;20042;-82
2022/12/29 03:46:34;;;;;;;11.27;7.68;;;;;;;16.19;60.04;99499.75;4995307;28;20415;-84
2022/12/29 03:48:59;;;;;;;10.23;7.32;;;;;;;16.20;59.88;99507.59;5011859;28;20061;-81
2022/12/29 03:51:25;;;;;;;10.73;7.70;;;;;;;16.21;60.04;99500.53;5046899;28;20033;-84
2022/12/29 03:53:50;;;;;;;11.18;7.32;;;;;;;16.23;59.88;99502.19;5051757;28;20054;-84
2022/12/29 03:56:16;;;;;;;10.55;7.72;;;;;;;16.22;59.83;99504.88;5053046;28;20031;-84
2022/12/29 03:58:41;;;;;;;9.38;7.10;;;;;;;16.26;59.70;99503.84;5052629;28;20033;-83
2022/12/29 04:01:06;;;;;;;11.13;7.32;;;;;;;16.24;59.82;99503.06;5058288;28;20020;-80
2022/12/29 04:03:32;;;;;;;10.63;6.97;;;;;;;16.26;59.75;99503.84;5072457;28;20028;-81
2022/12/29 04:05:57;;;;;;;9.77;7.00;;;;;;;16.26;59.70;99505.63;5072693;28;20025;-83
2022/12/29 04:08:23;;;;;;;8.82;6.43;;;;;;;16.28;59.72;99503.78;5073233;28;20374;-84
2022/12/29 04:10:49;;;;;;;8.65;6.57;;;;;;;16.26;59.76;99500.38;5073021;28;20025;-81
2022/12/29 04:13:15;;;;;;;9.52;6.65;;;;;;;16.27;59.78;99508.19;5072811;28;20044;-84
2022/12/29 04:15:42;;;;;;;10.00;7.40;;;;;;;16.27;59.66;99508.19;5073148;28;20028;-83
2022/12/29 04:18:07;;;;;;;10.40;6.90;;;;;;;16.24;59.67;99508.31;5072644;28;20033;-83
2022/12/29 04:23:17;;;;;;;10.10;7.25;;;;;;;16.24;59.69;99503.06;5073182;28;20097;-80
2022/12/29 04:25:47;;;;;;;10.93;7.00;;;;;;;16.27;59.67;99508.19;5072991;28;20024;-82
2022/12/29 04:28:12;;;;;;;9.00;6.40;;;;;;;16.27;59.50;99502.91;5072596;28;20464;-82
2022/12/29 04:30:42;;;;;;;8.68;6.60;;;;;;;16.25;59.78;99499.50;5071432;28;20044;-84
2022/12/29 04:33:07;;;;;;;10.68;6.93;;;;;;;16.23;59.74;99512.72;5072820;28;20108;-83
2022/12/29 04:35:32;;;;;;;9.02;6.43;;;;;;;16.22;59.65;99499.59;5072983;28;20049;-83
2022/12/29 04:37:58;;;;;;;9.18;7.03;;;;;;;16.20;59.54;99498.81;5071538;28;20036;-84
2022/12/29 04:40:24;;;;;;;10.65;7.20;;;;;;;16.21;59.59;99497.91;5072546;28;20036;-83
2022/12/29 04:42:49;;;;;;;8.77;6.55;;;;;;;16.22;59.65;99512.78;5072480;28;20036;-82
2022/12/29 04:45:15;;;;;;;9.30;6.50;;;;;;;16.18;59.88;99508.56;5072675;28;20025;-84
2022/12/29 04:47:40;;;;;;;11.02;6.63;;;;;;;16.17;59.95;99512.13;5072808;28;20481;-82
2022/12/29 04:50:06;;;;;;;9.07;6.47;;;;;;;16.18;59.58;99504.13;5072733;28;20029;-84
2022/12/29 04:52:32;;;;;;;10.73;7.13;;;;;;;16.20;59.76;99509.34;5072344;28;20405;-81
2022/12/29 04:54:57;;;;;;;11.38;7.07;;;;;;;16.23;59.81;99525.03;5072464;28;20020;-83
2022/12/29 04:57:23;;;;;;;10.63;6.82;;;;;;;16.24;59.54;99530.22;5072356;28;20047;-81
2022/12/29 04:59:48;;;;;;;8.75;6.35;;;;;;;16.28;59.70;99546.78;5072275;28;20028;-82
2022/12/29 05:02:14;;;;;;;8.95;6.38;;;;;;;16.29;59.44;99547.63;5071181;28;20032;-81
2022/12/29 05:04:39;;;;;;;8.52;6.28;;;;;;;16.28;59.67;99556.44;5072537;28;20027;-83
2022/12/29 05:07:07;;;;;;;10.00;7.00;;;;;;;16.29;59.35;99555.53;5071983;28;20421;-82
2022/12/29 05:09:33;;;;;;;9.63;6.40;;;;;;;16.27;59.56;99560.84;5070977;28;20506;-84
2022/12/29 05:11:58;;;;;;;7.93;5.90;;;;;;;16.28;59.57;99561.72;5072158;28;20024;-82
2022/12/29 05:14:24;;;;;;;7.85;5.82;;;;;;;16.28;59.47;99570.47;5072552;28;20029;-84
2022/12/29 05:16:49;;;;;;;8.13;6.32;;;;;;;16.28;59.65;99573.13;5074408;28;20028;-82
2022/12/29 05:19:16;;;;;;;8.95;5.75;;;;;;;16.27;59.70;99578.44;5074746;28;20056;-84
2022/12/29 05:21:42;;;;;;;8.50;6.32;;;;;;;16.28;59.44;99574.88;5076150;28;20066;-83
2022/12/29 05:24:07;;;;;;;9.18;6.90;;;;;;;16.28;59.59;99578.38;5076139;28;20390;-84
2022/12/29 05:26:33;;;;;;;8.98;6.00;;;;;;;16.28;59.51;99573.13;5075842;28;20106;-82
2022/12/29 05:28:59;;;;;;;10.50;6.68;;;;;;;16.29;59.48;99569.56;5074641;28;20119;-84
2022/12/29 05:31:25;;;;;;;10.85;6.25;;;;;;;16.29;59.42;99566.94;5075871;28;20028;-82
2022/12/29 05:33:51;;;;;;;9.13;5.60;;;;;;;16.24;59.35;99560.97;5075824;28;20361;-85
2022/12/29 05:36:16;;;;;;;9.63;6.78;;;;;;;16.19;59.53;99560.31;5074486;28;20025;-84
2022/12/29 05:38:41;;;;;;;7.43;5.60;;;;;;;16.25;59.50;99567.97;5075651;28;20501;-82
2022/12/29 05:41:07;;;;;;;8.50;5.43;;;;;;;16.24;59.56;99559.19;5073721;28;20021;-81
2022/12/29 05:43:32;;;;;;;8.77;6.15;;;;;;;16.27;59.37;99568.75;5075667;28;20037;-83
2022/12/29 05:45:58;;;;;;;8.45;6.28;;;;;;;16.25;59.72;99581.13;5075852;28;20023;-82
2022/12/29 05:48:23;;;;;;;7.55;5.90;;;;;;;16.24;59.68;99579.41;5074306;28;20737;-80
2022/12/29 05:50:50;;;;;;;7.90;5.72;;;;;;;16.21;59.59;99571.63;5075445;28;20163;-83
2022/12/29 05:53:16;;;;;;;8.07;5.80;;;;;;;16.24;59.69;99580.25;5075468;28;20085;-83
2022/12/29 05:55:42;;;;;;;9.02;5.85;;;;;;;16.25;59.68;99567.97;5073893;28;20024;-81
2022/12/29 05:58:08;;;;;;;7.28;5.65;;;;;;;16.27;59.52;99571.38;5075537;28;20646;-82
2022/12/29 06:00:34;;;;;;;8.13;6.15;;;;;;;16.27;59.60;99566.09;5074260;28;20131;-80
2022/12/29 06:02:59;;;;;;;8.20;5.90;;;;;;;16.22;59.47;99563.66;5074964;28;20390;-83
2022/12/29 06:05:25;;;;;;;8.38;6.32;;;;;;;16.21;59.72;99567.22;5075307;28;20048;-83
2022/12/29 06:07:51;;;;;;;8.90;6.32;;;;;;;16.26;59.63;99574.09;5075036;28;20044;-84
2022/12/29 06:10:17;;;;;;;7.78;5.60;;;;;;;16.20;59.43;99570.78;5074719;28;20028;-81
2022/12/29 06:12:42;;;;;;;8.02;5.60;;;;;;;16.21;59.65;99567.22;5075083;28;20111;-80
2022/12/29 06:15:08;;;;;;;10.13;6.28;;;;;;;16.21;59.53;99556.69;5074821;28;20035;-84
2022/12/29 06:17:33;;;;;;;8.60;6.60;;;;;;;16.23;59.42;99551.38;5074981;28;20048;-82
2022/12/29 06:19:59;;;;;;;8.77;6.25;;;;;;;16.20;59.70;99548.84;5073418;28;20083;-82
2022/12/29 06:22:24;;;;;;;8.45;5.95;;;;;;;16.17;59.64;99548.97;5074753;28;20020;-81
2022/12/29 06:24:50;;;;;;;9.50;6.03;;;;;;;16.15;59.70;99545.53;5074235;28;20394;-80
2022/12/29 06:27:15;;;;;;;8.90;6.43;;;;;;;16.13;59.97;99547.38;5074289;28;20039;-82
2022/12/29 06:29:42;;;;;;;8.25;6.28;;;;;;;16.14;59.98;99543.81;5073276;28;20081;-82
2022/12/29 06:32:08;;;;;;;7.95;6.18;;;;;;;16.12;59.77;99545.66;5073507;28;20555;-82
2022/12/29 06:34:33;;;;;;;9.07;6.00;;;;;;;16.08;59.95;99535.25;5074813;28;20024;-83
2022/12/29 06:36:59;;;;;;;10.85;6.63;;;;;;;16.09;60.04;99531.69;5074721;28;20062;-82
2022/12/29 06:39:24;;;;;;;8.85;6.30;;;;;;;16.09;60.03;99536.94;5074191;28;20100;-80
2022/12/29 06:42:40;;;;;;;8.60;5.80;;;;;;;16.08;60.02;99537.88;5074340;28;20025;-80
2022/12/29 06:45:07;;;;;;;11.18;6.07;;;;;;;16.04;60.12;99532.81;5070713;28;20446;-83
2022/12/29 06:47:33;;;;;;;8.80;6.25;;;;;;;16.06;60.25;99531.81;5074243;28;20020;-83
2022/12/29 06:49:58;;;;;;;8.50;6.25;;;;;;;16.05;60.06;99534.50;5074183;28;20024;-82
2022/12/29 06:52:24;;;;;;;11.35;6.30;;;;;;;16.06;59.85;99534.47;5074094;28;20561;-82
2022/12/29 06:54:49;;;;;;;8.25;6.00;;;;;;;16.05;59.93;99527.47;5073925;28;20078;-84
2022/12/29 06:57:15;;;;;;;8.43;6.20;;;;;;;16.06;60.16;99529.19;5073877;28;20056;-81
2022/12/29 06:59:40;;;;;;;10.00;5.78;;;;;;;16.12;59.93;99529.88;5073012;28;20032;-83
2022/12/29 07:02:06;;;;;;;9.05;6.07;;;;;;;16.12;59.66;99535.13;5067983;28;20387;-84
2022/12/29 07:04:32;;;;;;;8.35;5.78;;;;;;;16.10;59.88;99533.44;5072716;28;20547;-82
2022/12/29 07:06:57;;;;;;;10.55;6.65;;;;;;;16.08;59.76;99529.97;5073465;28;20048;-82
2022/12/29 07:09:22;;;;;;;8.57;5.70;;;;;;;16.09;60.10;99536.13;5073495;28;20032;-82
2022/12/29 07:11:48;;;;;;;8.40;6.10;;;;;;;16.09;59.80;99529.06;5072503;28;20023;-82
2022/12/29 07:14:13;;;;;;;8.25;5.72;;;;;;;16.06;60.04;99526.56;5072678;28;20548;-82
2022/12/29 07:16:39;;;;;;;8.45;6.13;;;;;;;16.09;60.01;99530.84;5073702;28;20094;-82
2022/12/29 07:19:04;;;;;;;7.75;5.68;;;;;;;16.08;59.80;99529.97;5072747;28;20024;-83
2022/12/29 07:21:30;;;;;;;9.20;5.43;;;;;;;16.10;59.92;99530.78;5072731;28;20059;-81
2022/12/29 07:23:56;;;;;;;9.90;6.30;;;;;;;16.07;59.96;99525.63;5073491;28;20064;-84
2022/12/29 07:26:22;;;;;;;9.40;6.38;;;;;;;16.13;59.75;99532.41;5072325;28;20048;-84
2022/12/29 07:28:47;;;;;;;8.75;6.15;;;;;;;16.15;59.85;99535.00;5073615;28;20524;-84
2022/12/29 07:31:18;;;;;;;10.50;6.45;;;;;;;16.13;59.56;99542.13;5073433;28;20103;-82
2022/12/29 07:33:44;;;;;;;8.98;5.47;;;;;;;16.10;59.60;99538.69;5073195;28;20031;-84
2022/12/29 07:36:11;;;;;;;8.40;6.30;;;;;;;16.13;59.64;99539.47;5073187;28;20111;-81
2022/12/29 07:38:37;;;;;;;7.57;5.63;;;;;;;16.17;59.66;99554.25;5072920;28;20032;-82
2022/12/29 07:41:02;;;;;;;7.88;5.78;;;;;;;16.17;59.60;99552.47;5073337;28;20021;-83
2022/12/29 07:43:28;;;;;;;8.55;6.10;;;;;;;16.17;59.56;99548.97;5073504;28;20024;-83
2022/12/29 07:45:53;;;;;;;9.88;6.28;;;;;;;16.19;59.56;99557.66;5073458;28;20047;-82
2022/12/29 07:48:19;;;;;;;9.40;6.18;;;;;;;16.18;59.60;99561.22;5073351;28;20021;-84
2022/12/29 07:50:45;;;;;;;7.60;5.32;;;;;;;16.19;59.50;99558.53;5073097;28;20157;-83
2022/12/29 07:53:10;;;;;;;8.25;5.38;;;;;;;16.19;59.62;99565.56;5073189;28;20020;-81
2022/12/29 07:55:36;;;;;;;7.63;6.35;;;;;;;16.19;59.70;99562.94;5071769;28;20031;-83
2022/12/29 07:58:01;;;;;;;7.43;5.22;;;;;;;16.19;59.42;99565.56;5073110;28;20366;-84
2022/12/29 08:00:27;;;;;;;8.95;6.07;;;;;;;16.20;59.64;99565.50;5072276;28;20078;-82
2022/12/29 08:02:52;;;;;;;10.07;6.03;;;;;;;16.18;59.49;99571.75;5067370;28;20486;-84
2022/12/29 08:05:18;;;;;;;9.10;6.10;;;;;;;16.19;59.53;99574.34;5072544;28;20035;-83
2022/12/29 08:07:44;;;;;;;6.90;5.47;;;;;;;16.20;59.50;99569.91;5072650;28;20053;-83
2022/12/29 08:10:12;;;;;;;7.57;5.63;;;;;;;16.21;59.41;99568.97;5073161;28;20059;-82
2022/12/29 08:12:38;;;;;;;8.10;5.93;;;;;;;16.20;59.28;99564.66;5071739;28;20124;-84
2022/12/29 08:15:05;;;;;;;10.25;6.05;;;;;;;16.20;59.55;99569.91;5072896;28;20025;-81
2022/12/29 08:17:31;;;;;;;8.82;5.55;;;;;;;16.18;59.49;99569.13;5072878;28;20064;-83
2022/12/29 08:19:56;;;;;;;8.25;6.10;;;;;;;16.19;59.58;99562.94;5072615;28;20029;-80
2022/12/29 08:22:23;;;;;;;8.30;6.03;;;;;;;16.19;59.53;99568.19;5072698;28;20033;-82
2022/12/29 08:24:49;;;;;;;8.98;6.10;;;;;;;16.23;59.60;99569.81;5071464;28;20060;-81
2022/12/29 08:27:14;;;;;;;7.20;5.57;;;;;;;16.21;59.67;99563.72;5072730;28;20044;-84
2022/12/29 08:29:40;;;;;;;8.43;5.88;;;;;;;16.20;59.45;99559.38;5072699;28;20072;-81
2022/12/29 08:32:06;;;;;;;8.95;5.93;;;;;;;16.19;59.41;99562.94;5072912;28;20025;-81
2022/12/29 08:34:32;;;;;;;9.27;6.40;;;;;;;16.20;59.61;99569.91;5072235;28;20035;-82
2022/12/29 08:36:57;;;;;;;8.43;6.10;;;;;;;16.21;59.63;99563.72;5071484;28;20033;-81
2022/12/29 08:39:23;;;;;;;8.15;5.93;;;;;;;16.19;59.45;99568.19;5072728;28;20158;-82
2022/12/29 08:41:48;;;;;;;8.30;5.63;;;;;;;16.22;59.67;99562.78;5072870;28;20029;-80
2022/12/29 08:44:14;;;;;;;10.48;6.00;;;;;;;16.22;59.50;99568.06;5072466;28;20024;-84
2022/12/29 08:46:39;;;;;;;9.27;5.93;;;;;;;16.21;59.54;99563.72;5072753;28;20570;-83
2022/12/29 08:49:05;;;;;;;9.18;6.18;;;;;;;16.20;59.51;99554.13;5072303;28;20131;-82
2022/12/29 08:51:30;;;;;;;9.50;5.90;;;;;;;16.21;59.21;99556.69;5076163;28;20111;-82
2022/12/29 08:53:56;;;;;;;7.68;5.57;;;;;;;16.21;59.47;99568.97;5076537;28;20042;-83
2022/12/29 08:56:23;;;;;;;9.10;6.00;;;;;;;16.21;59.60;99564.59;5075468;28;20032;-82
2022/12/29 08:58:49;;;;;;;8.80;6.50;;;;;;;16.19;59.27;99570.84;5076501;28;20040;-83
2022/12/29 09:01:15;;;;;;;9.98;5.60;;;;;;;16.18;59.46;99569.97;5076275;28;20425;-81
2022/12/29 09:03:40;;;;;;;9.43;6.05;;;;;;;16.19;59.60;99568.19;5076029;28;20035;-80
2022/12/29 09:06:06;;;;;;;8.77;5.60;;;;;;;16.19;59.64;99570.84;5076495;28;20133;-82
2022/12/29 09:08:32;;;;;;;9.30;6.53;;;;;;;16.19;59.46;99570.84;5076401;28;20525;-84
2022/12/29 09:11:06;;;;;;;7.53;5.45;;;;;;;16.19;59.33;99579.59;5076315;28;20050;-82
2022/12/29 09:13:31;;;;;;;9.60;5.70;;;;;;;16.20;59.49;99569.91;5076298;28;20095;-83
2022/12/29 09:16:00;;;;;;;9.13;5.90;;;;;;;16.17;59.61;99570.88;5074904;28;20640;-81
2022/12/29 09:18:25;;;;;;;8.45;5.75;;;;;;;16.20;59.38;99572.53;5074425;28;20035;-82
2022/12/29 09:20:57;;;;;;;8.10;5.55;;;;;;;16.17;59.56;99567.41;5076091;28;20020;-81
2022/12/29 09:23:23;;;;;;;8.70;5.90;;;;;;;16.16;59.73;99568.31;5075812;28;20036;-84
2022/12/29 09:25:48;;;;;;;10.20;5.88;;;;;;;16.17;59.61;99563.00;5108753;28;20082;-81
2022/12/29 09:28:13;;;;;;;8.85;5.63;;;;;;;16.18;59.72;99555.97;5074594;28;20024;-79
2022/12/29 09:30:39;;;;;;;7.43;5.30;;;;;;;16.17;59.74;99543.72;5075920;28;20482;-83
2022/12/29 09:33:04;;;;;;;9.48;5.82;;;;;;;16.16;59.52;99547.25;5074375;28;20128;-82
2022/12/29 09:35:30;;;;;;;8.43;5.55;;;;;;;16.19;59.85;99544.50;5075769;28;20087;-83
2022/12/29 09:37:55;;;;;;;9.52;5.95;;;;;;;16.15;59.93;99540.28;5074348;28;20033;-81
2022/12/29 09:40:33;;;;;;;9.43;5.75;;;;;;;16.16;59.88;99542.84;5074356;28;20035;-83
2022/12/29 09:43:25;;;;;;;10.20;5.82;;;;;;;16.17;59.71;99538.44;5074575;28;20093;-83
2022/12/29 09:45:51;;;;;;;9.38;5.47;;;;;;;16.16;59.69;99541.97;5075453;28;20036;-81
2022/12/29 09:48:35;;;;;;;9.43;5.38;;;;;;;16.13;59.78;99542.13;5075296;28;20371;-82
2022/12/29 09:51:08;;;;;;;9.23;5.72;;;;;;;16.12;60.13;99529.88;5075668;28;20116;-83
2022/12/29 09:53:40;;;;;;;8.23;5.68;;;;;;;16.14;59.79;99533.28;5075245;28;20132;-84
2022/12/29 09:56:15;;;;;;;10.13;5.85;;;;;;;16.16;59.94;99540.22;5074999;28;20032;-82
2022/12/29 09:59:05;;;;;;;8.98;5.75;;;;;;;16.12;60.04;99540.41;5075343;28;20089;-82
2022/12/29 10:01:36;;;;;;;10.05;5.93;;;;;;;16.14;59.75;99538.56;5072865;28;20112;-81
2022/12/29 10:04:04;;;;;;;9.07;6.20;;;;;;;16.15;59.88;99538.50;5075349;28;20436;-84
2022/12/29 10:06:36;;;;;;;8.27;5.63;;;;;;;16.14;59.98;99536.78;5073773;28;20044;-81
2022/12/29 10:09:40;;;;;;;10.40;6.35;;;;;;;16.15;59.77;99540.28;5074885;28;20069;-82
2022/12/29 10:12:27;;;;;;;10.18;5.38;;;;;;;16.18;60.07;99540.16;5033187;28;20499;-81
2022/12/29 10:14:52;;;;;;;;;;;;;;;16.17;60.05;99534.03;5033570;28;20455;-83
2022/12/29 10:17:27;;;;;;;10.20;6.27;;;;;;;16.16;60.11;99526.19;5032578;28;19955;-81
2022/12/29 10:20:14;;;;;;;8.57;6.10;;;;;;;16.14;60.03;99518.38;5033132;28;20438;-83
2022/12/29 10:22:57;;;;;;;;;;;;;;;16.18;59.87;99527.84;5033400;28;20486;-81
2022/12/29 10:25:26;;;;;;;10.48;5.88;;;;;;;16.18;60.00;99519.09;5049639;28;19951;-82
2022/12/29 10:27:54;;;;;;;10.32;6.22;;;;;;;16.17;60.02;99527.91;5032780;28;20118;-84
2022/12/29 10:30:20;;;;;;;11.00;5.93;;;;;;;16.18;60.00;99516.47;5032552;28;20487;-81
2022/12/29 10:32:54;;;;;;;8.45;5.80;;;;;;;16.18;60.08;99513.84;5032482;28;20101;-80
2022/12/29 10:35:23;;;;;;;8.88;5.70;;;;;;;16.19;60.00;99515.53;5032729;28;20503;-84
2022/12/29 10:37:52;;;;;;;9.30;5.72;;;;;;;16.17;60.09;99520.03;5032834;28;20033;-81
2022/12/29 10:40:27;;;;;;;10.07;5.70;;;;;;;16.22;59.71;99515.41;5032671;28;20030;-84
2022/12/29 10:42:54;;;;;;;8.25;5.90;;;;;;;16.22;59.99;99515.41;5032309;28;20021;-82
2022/12/29 10:45:23;;;;;;;9.57;5.72;;;;;;;16.22;60.11;99515.41;5032222;28;20523;-83
2022/12/29 10:48:04;;;;;;;8.57;5.85;;;;;;;16.22;60.01;99512.78;5058230;28;20033;-83
2022/12/29 10:50:30;;;;;;;10.23;5.70;;;;;;;16.22;59.97;99516.28;5074362;28;20016;-82
2022/12/29 10:53:00;;;;;;;8.40;5.72;;;;;;;16.23;59.82;99511.88;5074438;28;20016;-82
2022/12/29 10:55:31;;;;;;;9.20;5.68;;;;;;;16.24;59.59;99513.59;5074458;28;20086;-84
2022/12/29 10:58:04;;;;;;;7.80;5.63;;;;;;;16.27;59.94;99518.72;5073895;28;20123;-84
2022/12/29 11:00:30;;;;;;;7.32;5.30;;;;;;;16.26;59.83;99511.75;5073506;28;20060;-82
2022/12/29 11:03:09;;;;;;;8.55;6.10;;;;;;;16.28;59.52;99509.91;5068258;28;20530;-84
2022/12/29 11:05:34;;;;;;;8.48;5.75;;;;;;;16.29;59.80;99511.63;5074332;28;20406;-84
2022/12/29 11:08:04;;;;;;;8.75;6.00;;;;;;;16.28;59.73;99512.56;5073964;28;20037;-83
2022/12/29 11:10:32;;;;;;;9.15;5.85;;;;;;;16.27;59.64;99513.44;5072998;28;20513;-82
2022/12/29 11:13:01;;;;;;;8.43;5.85;;;;;;;16.29;59.94;99508.13;5073694;28;20029;-84
2022/12/29 11:15:26;;;;;;;8.52;5.70;;;;;;;16.30;59.92;99513.34;5073361;28;20028;-84
2022/12/29 11:17:59;;;;;;;8.05;5.75;;;;;;;16.30;59.68;99507.19;5073856;28;20035;-84
2022/12/29 11:20:37;;;;;;;9.65;5.95;;;;;;;16.29;59.68;99510.75;5073890;28;20028;-79
2022/12/29 11:23:22;;;;;;;8.43;5.60;;;;;;;16.30;59.69;99513.34;5073825;28;20025;-84
2022/12/29 11:26:15;;;;;;;9.40;5.72;;;;;;;16.29;59.48;99511.63;5073661;28;20021;-84
2022/12/29 11:28:43;;;;;;;8.00;5.43;;;;;;;16.30;59.89;99502.81;5073385;28;20036;-83
2022/12/29 11:31:10;;;;;;;8.65;5.90;;;;;;;16.30;59.75;99494.91;5073792;28;20029;-84
2022/12/29 11:33:38;;;;;;;7.82;5.07;;;;;;;16.29;59.70;99485.28;5073417;28;20078;-83
2022/12/29 11:36:17;;;;;;;8.23;5.45;;;;;;;16.31;59.74;99493.97;5072442;28;20028;-83
2022/12/29 11:38:50;;;;;;;7.75;5.80;;;;;;;16.31;59.52;99483.44;5073458;28;20033;-83
2022/12/29 11:41:26;;;;;;;8.45;5.70;;;;;;;16.31;59.56;99478.19;5073558;28;20028;-82
2022/12/29 11:43:54;;;;;;;8.90;5.82;;;;;;;16.33;59.69;99468.44;5073311;28;20074;-84
2022/12/29 11:46:25;;;;;;;9.30;5.97;;;;;;;16.31;59.49;99462.38;5073631;28;20491;-84
2022/12/29 11:48:50;;;;;;;9.60;5.68;;;;;;;16.33;59.57;99465.78;5073595;28;20051;-84
2022/12/29 11:51:26;;;;;;;8.25;5.97;;;;;;;16.32;59.70;99458.81;5073479;28;20490;-82
2022/12/29 11:53:55;;;;;;;7.78;6.00;;;;;;;16.33;59.66;99459.69;5073366;28;20017;-84
2022/12/29 11:56:35;;;;;;;8.88;5.97;;;;;;;16.33;59.57;99444.72;5073334;28;20021;-83
2022/12/29 11:59:36;;;;;;;8.27;5.82;;;;;;;16.34;60.01;99435.94;5073208;28;20036;-81
2022/12/29 12:02:41;;;;;;;8.82;5.53;;;;;;;16.33;60.00;99422.81;5067066;28;20101;-83
2022/12/29 12:05:17;;;;;;;8.63;5.95;;;;;;;16.34;59.76;99430.66;5073024;28;20036;-84
2022/12/29 12:07:46;;;;;;;8.35;5.68;;;;;;;16.34;59.75;99427.16;5071754;28;20056;-84
2022/12/29 12:10:38;;;;;;;8.50;6.00;;;;;;;16.35;59.64;99416.56;5073193;28;20132;-82
2022/12/29 12:13:22;;;;;;;9.10;6.00;;;;;;;16.35;60.07;99411.31;5072860;28;20032;-81
2022/12/29 12:15:57;;;;;;;8.00;5.47;;;;;;;16.38;59.69;99415.59;5072272;28;20040;-83
2022/12/29 12:18:41;;;;;;;8.30;6.25;;;;;;;16.36;59.67;99410.38;5071690;28;20025;-84